Time;durP1;ratioP1;P1;durP2;ratioP2;P2;SDS_P1;SDS_P2;PMS_P1;PMS_P2;Temp;Humidity;BMP_temperature;BMP_pressure;BME280_temperature;BME280_humidity;BME280_pressure;Samples;Min_cycle;Max_cycle;Signal;HPM_P1;HPM_P2
2022/05/03 00:00:09;;;;;;;1.65;1.55;;;;;;;19.34;47.09;99674.09;1739778;81;21025;-64
2022/05/03 00:02:47;;;;;;;1.98;1.80;;;;;;;19.33;47.08;99673.25;1743981;81;21077;-65
2022/05/03 00:06:02;;;;;;;1.90;1.80;;;;;;;19.32;47.12;99670.80;1734266;81;21010;-64
2022/05/03 00:08:40;;;;;;;1.62;1.47;;;;;;;19.31;47.12;99669.96;1743671;81;20999;-64
2022/05/03 00:11:29;;;;;;;1.62;1.50;;;;;;;19.30;47.09;99669.68;1743675;81;21102;-64
2022/05/03 00:14:21;;;;;;;1.80;1.70;;;;;;;19.29;47.11;99667.20;1687617;83;21013;-63
2022/05/03 00:16:49;;;;;;;1.77;1.55;;;;;;;19.27;47.15;99662.05;1743489;82;21057;-65
2022/05/03 00:19:16;;;;;;;2.02;1.87;;;;;;;19.26;47.12;99668.49;1743343;82;21070;-64
2022/05/03 00:21:43;;;;;;;1.80;1.70;;;;;;;19.24;47.14;99663.33;1743634;82;21010;-64
2022/05/03 00:24:09;;;;;;;1.87;1.77;;;;;;;19.25;47.16;99662.80;1743493;82;21239;-64
2022/05/03 00:26:36;;;;;;;1.95;1.50;;;;;;;19.24;47.19;99661.98;1743518;82;21086;-64
2022/05/03 00:29:03;;;;;;;1.70;1.60;;;;;;;19.25;47.17;99664.14;1741047;82;21051;-64
2022/05/03 00:33:37;;;;;;;2.17;1.72;;;;;;;19.29;47.17;99655.91;1889338;76;28138;-64
2022/05/03 00:36:04;;;;;;;1.85;1.75;;;;;;;19.25;47.15;99658.22;1860365;77;21051;-65
2022/05/03 00:38:34;;;;;;;1.75;1.65;;;;;;;19.25;47.13;99656.06;1860178;77;21122;-64
2022/05/03 00:41:01;;;;;;;1.90;1.70;;;;;;;19.25;47.13;99652.02;1860160;77;21489;-64
2022/05/03 00:44:03;;;;;;;1.95;1.75;;;;;;;19.23;47.17;99654.94;1860147;77;21001;-64
2022/05/03 00:46:34;;;;;;;1.70;1.60;;;;;;;19.24;47.13;99657.13;1850256;77;20961;-63
2022/05/03 00:49:12;;;;;;;2.02;1.80;;;;;;;19.23;47.11;99658.97;1826625;78;20984;-64
2022/05/03 00:51:53;;;;;;;2.05;1.85;;;;;;;19.23;47.13;99650.08;1826486;78;21268;-64
2022/05/03 00:54:40;;;;;;;1.90;1.80;;;;;;;19.22;47.11;99645.77;1826404;78;20976;-64
2022/05/03 00:57:46;;;;;;;1.62;1.52;;;;;;;19.20;47.14;99650.02;1813349;78;21051;-64
2022/05/03 01:00:14;;;;;;;1.60;1.50;;;;;;;19.19;47.14;99644.86;1826561;78;20997;-64
2022/05/03 01:02:59;;;;;;;2.42;1.80;;;;;;;19.18;47.16;99641.85;1826585;78;22069;-64
2022/05/03 01:05:28;;;;;;;2.25;1.92;;;;;;;19.17;47.15;99644.27;1826500;78;21132;-65
2022/05/03 01:08:06;;;;;;;1.85;1.75;;;;;;;19.16;47.19;99642.11;1826500;78;21012;-64
2022/05/03 01:10:47;;;;;;;1.82;1.72;;;;;;;19.16;47.19;99637.22;1826722;78;21040;-63
2022/05/03 01:13:27;;;;;;;2.20;2.00;;;;;;;19.15;47.18;99640.98;1826303;78;21068;-63
2022/05/03 01:16:03;;;;;;;1.77;1.67;;;;;;;19.14;47.20;99643.36;1826358;78;21055;-64
2022/05/03 01:18:43;;;;;;;2.00;1.70;;;;;;;19.13;47.19;99639.04;1821014;78;21212;-64
2022/05/03 01:21:49;;;;;;;1.60;1.50;;;;;;;19.12;47.21;99643.58;1827480;77;21055;-64
2022/05/03 01:24:56;;;;;;;2.33;2.02;;;;;;;19.12;47.21;99642.23;1825353;78;21528;-65
2022/05/03 01:27:44;;;;;;;1.75;1.65;;;;;;;19.10;47.22;99642.98;1825674;78;21009;-64
2022/05/03 01:30:15;;;;;;;2.20;2.00;;;;;;;19.08;47.23;99642.92;1844889;77;21000;-64
2022/05/03 01:32:43;;;;;;;1.90;1.80;;;;;;;19.07;47.25;99642.11;1849903;77;21261;-64
2022/05/03 01:35:13;;;;;;;2.17;2.00;;;;;;;19.06;47.25;99639.11;1846095;77;21072;-64
2022/05/03 01:37:52;;;;;;;1.85;1.75;;;;;;;19.07;47.25;99626.48;1847982;76;21064;-65
2022/05/03 01:41:00;;;;;;;1.60;1.50;;;;;;;19.05;47.29;99639.64;1836089;77;21478;-64
2022/05/03 01:44:11;;;;;;;2.98;1.70;;;;;;;19.05;47.27;99638.30;1847960;77;20997;-65
2022/05/03 01:46:39;;;;;;;1.90;1.70;;;;;;;19.04;47.28;99633.13;1847669;77;21061;-64
2022/05/03 01:52:18;;;;;;;2.20;1.85;;;;;;;19.01;47.29;99624.98;1834432;78;21024;-64
2022/05/03 01:55:03;;;;;;;2.10;1.90;;;;;;;19.00;47.28;99626.02;1827027;77;21001;-63
2022/05/03 01:58:15;;;;;;;1.60;1.50;;;;;;;18.98;47.29;99638.89;1814829;79;21017;-64
2022/05/03 02:00:42;;;;;;;2.70;1.90;;;;;;;18.99;47.29;99628.43;1814779;79;21130;-63
2022/05/03 02:03:49;;;;;;;1.80;1.70;;;;;;;18.98;47.28;99620.58;1814686;78;21482;-64
2022/05/03 02:06:33;;;;;;;2.67;1.82;;;;;;;18.98;47.28;99616.54;1814758;79;21540;-65
2022/05/03 02:09:04;;;;;;;;;;;;;;;18.96;47.30;99622.14;1817476;79;21497;-64
2022/05/03 02:11:55;;;;;;;1.82;1.70;;;;;;;18.95;47.33;99619.17;1816010;77;20139;-64
2022/05/03 02:14:44;;;;;;;2.02;1.85;;;;;;;18.94;47.33;99610.78;1814763;78;21557;-64
2022/05/03 02:17:34;;;;;;;1.70;1.60;;;;;;;18.93;47.34;99607.81;1814657;78;21514;-64
2022/05/03 02:20:27;;;;;;;2.05;1.90;;;;;;;18.93;47.36;99629.84;1814619;78;21541;-64
2022/05/03 02:23:34;;;;;;;1.87;1.70;;;;;;;18.91;47.37;99622.02;1813854;78;20990;-64
2022/05/03 02:26:28;;;;;;;2.12;1.92;;;;;;;18.92;47.36;99622.83;1814668;78;21049;-64
2022/05/03 02:28:59;;;;;;;1.98;1.80;;;;;;;18.91;47.36;99621.17;1819415;76;21146;-64
2022/05/03 02:31:44;;;;;;;2.20;2.00;;;;;;;18.89;47.39;99621.92;1868314;76;21010;-65
2022/05/03 02:34:40;;;;;;;2.10;1.90;;;;;;;18.89;47.40;99619.23;1802656;78;21502;-64
2022/05/03 02:37:17;;;;;;;2.02;1.90;;;;;;;18.88;47.40;99616.26;1837253;78;21025;-63
2022/05/03 02:39:49;;;;;;;2.27;1.77;;;;;;;18.87;47.40;99616.76;1808791;78;21072;-64
2022/05/03 02:42:15;;;;;;;1.82;1.72;;;;;;;18.88;47.42;99627.02;1836967;78;21991;-64
2022/05/03 02:44:42;;;;;;;1.80;1.70;;;;;;;18.88;47.41;99629.19;1837290;78;20986;-64
2022/05/03 02:47:29;;;;;;;1.77;1.67;;;;;;;18.88;47.41;99618.42;1841166;77;21046;-64
2022/05/03 02:50:21;;;;;;;2.02;1.90;;;;;;;18.87;47.42;99616.76;1754314;81;21014;-64
2022/05/03 02:53:05;;;;;;;1.67;1.57;;;;;;;18.89;47.44;99621.92;1740927;81;21045;-64
2022/05/03 02:55:54;;;;;;;1.75;1.65;;;;;;;18.87;47.41;99620.80;1843015;77;21216;-65
2022/05/03 02:58:59;;;;;;;1.75;1.65;;;;;;;18.88;47.41;99618.42;1769039;80;20995;-65
2022/05/03 03:02:01;;;;;;;2.67;2.17;;;;;;;18.87;47.42;99623.48;1842760;77;20998;-64
2022/05/03 03:04:44;;;;;;;1.75;1.62;;;;;;;18.85;47.43;99618.36;1842705;77;21470;-65
2022/05/03 03:07:21;;;;;;;2.08;1.87;;;;;;;18.85;47.44;99620.20;1768969;81;20986;-64
2022/05/03 03:09:56;;;;;;;2.33;1.72;;;;;;;18.84;47.46;99619.39;1842960;77;21129;-65
2022/05/03 03:12:36;;;;;;;1.85;1.75;;;;;;;18.84;47.49;99615.88;1841319;77;20975;-64
2022/05/03 03:15:07;;;;;;;2.15;1.92;;;;;;;18.84;47.47;99620.73;1768905;80;20978;-64
2022/05/03 03:17:42;;;;;;;1.90;1.80;;;;;;;18.85;47.48;99618.86;1768725;81;21081;-64
2022/05/03 03:20:14;;;;;;;1.70;1.60;;;;;;;18.84;47.49;99617.23;1771947;80;21002;-64
2022/05/03 03:22:43;;;;;;;2.67;2.08;;;;;;;18.85;47.49;99616.16;1792907;80;21554;-64
2022/05/03 03:25:18;;;;;;;2.25;2.00;;;;;;;18.85;47.48;99619.70;1774492;80;21537;-64
2022/05/03 03:27:51;;;;;;;2.00;1.90;;;;;;;18.86;47.49;99624.02;1792593;80;21029;-64
2022/05/03 03:30:18;;;;;;;3.25;2.20;;;;;;;18.86;47.47;99633.44;1720776;83;21521;-64
2022/05/03 03:32:49;;;;;;;1.80;1.70;;;;;;;18.86;47.50;99628.59;1796732;78;21072;-64
2022/05/03 03:35:16;;;;;;;1.85;1.75;;;;;;;18.86;47.48;99630.75;1822238;78;21117;-64
2022/05/03 03:37:46;;;;;;;1.98;1.80;;;;;;;18.86;47.49;99622.67;1877815;75;21017;-64
2022/05/03 03:40:15;;;;;;;2.45;2.05;;;;;;;18.88;47.49;99618.95;1892291;75;21006;-64
2022/05/03 03:42:43;;;;;;;2.12;1.92;;;;;;;18.88;47.47;99625.14;1892218;75;21017;-64
2022/05/03 03:45:13;;;;;;;1.72;1.62;;;;;;;18.88;47.50;99617.08;1892453;75;21678;-64
2022/05/03 03:47:41;;;;;;;1.80;1.70;;;;;;;18.88;47.48;99619.77;1891554;75;21137;-64
2022/05/03 03:50:09;;;;;;;2.27;2.08;;;;;;;18.90;47.47;99623.58;1892223;75;21041;-64
2022/05/03 03:52:39;;;;;;;1.87;1.77;;;;;;;18.91;47.49;99623.36;1817075;79;21010;-64
2022/05/03 03:55:07;;;;;;;1.82;1.72;;;;;;;18.89;47.50;99621.42;1817657;78;21013;-65
2022/05/03 03:57:36;;;;;;;2.12;1.95;;;;;;;18.91;47.50;99618.48;1790417;79;21072;-64
2022/05/03 04:00:07;;;;;;;2.22;1.95;;;;;;;18.91;47.50;99617.98;1818895;78;21190;-64
2022/05/03 04:02:43;;;;;;;1.90;1.80;;;;;;;18.92;47.49;99614.75;1817133;79;21022;-65
2022/05/03 04:05:17;;;;;;;2.10;1.90;;;;;;;18.92;47.50;99623.64;1818865;78;21013;-64
2022/05/03 04:07:44;;;;;;;1.80;1.70;;;;;;;18.92;47.50;99629.03;1816090;79;21029;-64
2022/05/03 04:10:11;;;;;;;1.82;1.72;;;;;;;18.93;47.48;99621.77;1810035;78;21014;-64
2022/05/03 04:12:37;;;;;;;1.85;1.75;;;;;;;18.92;47.46;99630.38;1754915;81;21147;-65
2022/05/03 04:15:05;;;;;;;2.05;1.92;;;;;;;18.93;47.45;99625.80;1754852;81;21053;-65
2022/05/03 04:17:32;;;;;;;2.33;2.12;;;;;;;18.94;47.47;99620.73;1727595;81;21017;-65
2022/05/03 04:20:00;;;;;;;1.70;1.60;;;;;;;18.93;47.47;99621.27;1754881;81;21062;-65
2022/05/03 04:22:29;;;;;;;2.05;1.90;;;;;;;18.94;47.47;99628.28;1754957;81;20997;-65
2022/05/03 04:24:56;;;;;;;2.00;1.87;;;;;;;18.95;47.47;99631.28;1754934;81;21762;-64
2022/05/03 04:27:23;;;;;;;2.17;1.98;;;;;;;18.94;47.46;99620.20;1759336;78;21038;-64
2022/05/03 04:29:51;;;;;;;2.20;2.10;;;;;;;18.95;47.46;99618.33;1783297;80;21557;-65
2022/05/03 04:32:17;;;;;;;2.02;1.82;;;;;;;18.96;47.45;99623.48;1785927;80;21033;-65
2022/05/03 04:34:44;;;;;;;2.52;2.08;;;;;;;18.97;47.45;99625.67;1766272;80;21542;-64
2022/05/03 04:37:10;;;;;;;1.60;1.50;;;;;;;18.97;47.46;99628.37;1764824;81;22096;-64
2022/05/03 04:39:36;;;;;;;2.12;1.72;;;;;;;18.98;47.42;99617.35;1764783;81;20991;-64
2022/05/03 04:42:05;;;;;;;1.98;1.80;;;;;;;18.98;47.42;99621.39;1764977;81;20987;-65
2022/05/03 04:44:32;;;;;;;1.60;1.50;;;;;;;18.99;47.44;99620.89;1763737;81;21035;-64
2022/05/03 04:46:58;;;;;;;2.05;1.85;;;;;;;18.99;47.44;99622.23;1765009;81;21086;-64
2022/05/03 04:49:25;;;;;;;2.00;1.80;;;;;;;19.00;47.45;99621.98;1764101;81;21767;-64
2022/05/03 04:51:51;;;;;;;2.00;1.82;;;;;;;19.00;47.43;99623.33;1764874;81;21070;-64
2022/05/03 04:54:18;;;;;;;2.08;1.87;;;;;;;19.01;47.45;99622.30;1764821;81;21023;-64
2022/05/03 04:56:52;;;;;;;2.02;1.92;;;;;;;19.02;47.45;99619.88;1764956;81;21483;-64
2022/05/03 04:59:18;;;;;;;2.02;1.90;;;;;;;19.03;47.45;99622.08;1764895;81;21050;-64
2022/05/03 05:01:44;;;;;;;1.85;1.60;;;;;;;19.04;47.48;99619.16;1753592;81;21139;-64
2022/05/03 05:04:11;;;;;;;2.15;1.92;;;;;;;19.05;47.48;99610.55;1734437;82;21058;-64
2022/05/03 05:06:37;;;;;;;2.00;1.80;;;;;;;19.08;47.48;99619.50;1734389;82;21567;-63
2022/05/03 05:09:04;;;;;;;2.15;1.87;;;;;;;19.10;47.47;99616.59;1734476;82;21086;-65
2022/05/03 05:11:30;;;;;;;2.65;1.98;;;;;;;19.10;47.46;99613.91;1734541;82;21046;-64
2022/05/03 05:13:58;;;;;;;1.95;1.80;;;;;;;19.13;47.50;99613.45;1734492;82;21108;-65
2022/05/03 05:16:24;;;;;;;2.17;1.98;;;;;;;19.14;47.54;99610.55;1734563;82;21519;-64
2022/05/03 05:18:51;;;;;;;2.00;1.80;;;;;;;19.16;47.60;99615.68;1735601;81;21019;-64
2022/05/03 05:21:17;;;;;;;1.90;1.80;;;;;;;19.17;47.61;99611.95;1734595;82;21034;-65
2022/05/03 05:23:44;;;;;;;1.77;1.67;;;;;;;19.19;47.65;99615.23;1734716;82;21050;-65
2022/05/03 05:26:11;;;;;;;2.25;2.05;;;;;;;19.20;47.68;99616.86;1734611;82;21141;-65
2022/05/03 05:28:38;;;;;;;2.20;1.90;;;;;;;19.22;47.70;99618.30;1757695;81;20975;-65
2022/05/03 05:31:05;;;;;;;1.85;1.75;;;;;;;19.23;47.71;99614.55;1764986;81;21038;-65
2022/05/03 05:33:32;;;;;;;1.87;1.77;;;;;;;19.25;47.72;99619.70;1766548;80;21019;-64
2022/05/03 05:35:58;;;;;;;2.15;1.95;;;;;;;19.27;47.75;99623.52;1761855;81;20998;-64
2022/05/03 05:38:25;;;;;;;2.40;1.72;;;;;;;19.27;47.76;99614.91;1751845;82;21088;-65
2022/05/03 05:40:52;;;;;;;2.05;1.80;;;;;;;19.29;47.78;99623.58;1781429;80;21504;-64
2022/05/03 05:43:18;;;;;;;2.02;1.60;;;;;;;19.29;47.78;99618.20;1820407;78;21056;-65
2022/05/03 05:45:45;;;;;;;2.20;2.00;;;;;;;19.31;47.80;99620.13;1820380;78;21064;-65
2022/05/03 05:48:15;;;;;;;2.10;1.90;;;;;;;19.32;47.81;99625.83;1820366;78;21061;-65
2022/05/03 05:50:42;;;;;;;2.85;2.55;;;;;;;19.33;47.83;99622.61;1820259;78;21129;-65
2022/05/03 05:55:55;;;;;;;1.90;1.80;;;;;;;19.35;47.86;99621.31;1820444;78;21049;-65
2022/05/03 05:58:21;;;;;;;1.90;1.80;;;;;;;19.36;47.89;99621.63;1820470;78;21486;-65
2022/05/03 06:00:48;;;;;;;1.95;1.70;;;;;;;19.37;47.90;99619.25;1820678;78;21489;-65
2022/05/03 06:03:16;;;;;;;2.10;1.98;;;;;;;19.39;47.92;99621.19;1820445;78;21105;-64
2022/05/03 06:05:43;;;;;;;1.70;1.60;;;;;;;19.40;47.89;99616.08;1820178;78;21071;-64
2022/05/03 06:08:11;;;;;;;2.02;1.92;;;;;;;19.42;47.90;99622.05;1820322;78;20997;-64
2022/05/03 06:10:39;;;;;;;2.10;2.00;;;;;;;19.44;47.90;99619.95;1821002;77;22109;-64
2022/05/03 06:13:06;;;;;;;1.72;1.62;;;;;;;19.45;47.93;99615.38;1820481;78;20977;-64
2022/05/03 06:15:34;;;;;;;2.10;1.90;;;;;;;19.47;47.94;99625.93;1820245;78;22020;-65
2022/05/03 06:18:01;;;;;;;1.82;1.72;;;;;;;19.49;47.95;99626.02;1820264;78;21037;-65
2022/05/03 06:20:27;;;;;;;1.95;1.80;;;;;;;19.50;47.95;99619.56;1820260;78;21065;-65
2022/05/03 06:22:54;;;;;;;1.92;1.80;;;;;;;19.51;47.98;99626.61;1820280;78;21075;-64
2022/05/03 06:25:23;;;;;;;3.02;2.02;;;;;;;19.53;47.98;99616.92;1820393;78;21041;-65
2022/05/03 06:27:51;;;;;;;2.10;1.90;;;;;;;19.54;47.99;99622.63;1820979;77;20970;-64
2022/05/03 06:30:17;;;;;;;2.17;1.98;;;;;;;19.56;48.03;99623.22;1820720;78;21009;-64
2022/05/03 06:32:44;;;;;;;1.87;1.77;;;;;;;19.58;48.04;99621.11;1820175;78;21048;-65
2022/05/03 06:35:12;;;;;;;2.12;1.72;;;;;;;19.59;48.02;99614.69;1818735;78;21029;-64
2022/05/03 06:37:40;;;;;;;2.05;1.85;;;;;;;19.61;48.01;99622.01;1818513;78;21049;-64
2022/05/03 06:40:09;;;;;;;2.20;2.00;;;;;;;19.63;48.02;99618.55;1818742;78;21242;-65
2022/05/03 06:42:39;;;;;;;1.95;1.75;;;;;;;19.64;48.03;99609.41;1818632;78;21115;-65
2022/05/03 06:45:07;;;;;;;1.87;1.77;;;;;;;19.67;48.04;99618.38;1817574;78;21061;-65
2022/05/03 06:47:34;;;;;;;1.70;1.60;;;;;;;19.68;48.01;99621.36;1818391;78;21493;-64
2022/05/03 06:50:01;;;;;;;1.85;1.75;;;;;;;19.70;48.00;99620.63;1818679;78;21049;-64
2022/05/03 06:52:28;;;;;;;1.80;1.70;;;;;;;19.72;48.01;99618.56;1818737;78;21238;-64
2022/05/03 06:54:54;;;;;;;2.05;1.85;;;;;;;19.74;47.94;99613.75;1818887;78;21025;-64
2022/05/03 06:57:21;;;;;;;1.90;1.77;;;;;;;19.76;47.91;99612.99;1818586;78;21525;-64
2022/05/03 06:59:47;;;;;;;2.50;2.08;;;;;;;19.77;47.89;99621.36;1818379;78;21084;-64
2022/05/03 07:02:14;;;;;;;1.87;1.70;;;;;;;19.79;47.89;99611.70;1803116;78;21077;-63
2022/05/03 07:04:43;;;;;;;2.35;2.00;;;;;;;19.80;47.87;99608.78;1802836;79;21120;-64
2022/05/03 07:07:08;;;;;;;2.02;1.80;;;;;;;19.82;47.82;99609.91;1802496;79;20974;-65
2022/05/03 07:09:35;;;;;;;1.70;1.60;;;;;;;19.83;47.80;99612.34;1802672;79;21478;-64
2022/05/03 07:12:04;;;;;;;1.90;1.80;;;;;;;19.84;47.76;99608.61;1802682;79;21046;-65
2022/05/03 07:14:31;;;;;;;2.42;2.22;;;;;;;19.88;47.77;99610.31;1802464;79;21006;-64
2022/05/03 07:16:57;;;;;;;2.12;1.92;;;;;;;19.90;47.79;99608.20;1803489;78;21245;-64
2022/05/03 07:24:53;;;;;;;2.05;1.85;;;;;;;19.98;47.93;99615.13;1818609;78;21375;-66
2022/05/03 07:27:20;;;;;;;1.50;1.40;;;;;;;19.99;47.97;99609.52;1818506;78;21086;-64
2022/05/03 07:29:46;;;;;;;1.70;1.60;;;;;;;20.01;47.95;99616.00;1818572;78;21149;-64
2022/05/03 07:32:13;;;;;;;2.08;1.70;;;;;;;20.02;47.95;99613.61;1779646;80;20996;-65
2022/05/03 07:34:39;;;;;;;1.70;1.60;;;;;;;20.04;47.93;99606.11;1784923;78;21079;-64
2022/05/03 07:37:06;;;;;;;1.52;1.40;;;;;;;20.07;47.94;99614.24;1781309;80;21059;-66
2022/05/03 07:39:32;;;;;;;2.00;1.90;;;;;;;20.07;47.93;99607.00;1781338;80;21005;-64
2022/05/03 07:41:59;;;;;;;1.72;1.57;;;;;;;20.10;47.97;99612.44;1820293;78;21195;-64
2022/05/03 07:44:26;;;;;;;2.10;1.98;;;;;;;20.11;48.01;99614.91;1820290;78;21187;-64
2022/05/03 07:46:52;;;;;;;1.70;1.60;;;;;;;20.13;47.97;99609.29;1820431;78;21027;-65
2022/05/03 07:49:18;;;;;;;1.60;1.50;;;;;;;20.14;48.02;99613.08;1820237;77;21471;-64
2022/05/03 07:51:45;;;;;;;1.85;1.75;;;;;;;20.17;47.98;99602.38;1825757;77;21045;-64
2022/05/03 07:54:11;;;;;;;3.15;1.50;;;;;;;20.18;48.07;99611.55;1800304;79;21141;-64
2022/05/03 07:56:38;;;;;;;1.80;1.70;;;;;;;20.21;48.08;99616.48;1842649;77;21573;-63
2022/05/03 07:59:06;;;;;;;1.70;1.60;;;;;;;20.23;48.11;99610.33;1800506;79;21644;-64
2022/05/03 08:01:32;;;;;;;1.95;1.85;;;;;;;20.25;48.09;99609.29;1842850;77;21560;-66
2022/05/03 08:03:59;;;;;;;1.85;1.75;;;;;;;20.27;48.14;99606.64;1800349;79;21041;-64
2022/05/03 08:06:27;;;;;;;1.72;1.62;;;;;;;20.30;48.12;99610.73;1842608;77;21300;-64
2022/05/03 08:08:55;;;;;;;1.57;1.47;;;;;;;20.32;48.08;99612.67;1841891;77;21159;-64
2022/05/03 08:11:22;;;;;;;1.60;1.50;;;;;;;20.35;48.08;99604.92;1842762;77;21013;-64
2022/05/03 08:13:52;;;;;;;1.60;1.50;;;;;;;20.36;48.21;99601.19;1842701;77;21490;-64
2022/05/03 08:16:20;;;;;;;2.02;1.82;;;;;;;20.37;48.29;99598.77;1800283;79;21054;-65
2022/05/03 08:18:47;;;;;;;1.90;1.80;;;;;;;20.41;48.29;99602.63;1842612;77;21127;-64
2022/05/03 08:21:15;;;;;;;2.05;1.90;;;;;;;20.42;48.32;99594.03;1843037;77;21107;-65
2022/05/03 08:23:42;;;;;;;1.87;1.77;;;;;;;20.44;48.24;99597.31;1800211;79;21034;-65
2022/05/03 08:26:08;;;;;;;1.70;1.60;;;;;;;20.46;48.20;99594.38;1830629;77;21455;-65
2022/05/03 08:28:36;;;;;;;1.72;1.60;;;;;;;20.48;48.25;99594.97;1820342;78;20995;-65
2022/05/03 08:31:03;;;;;;;2.05;1.87;;;;;;;20.49;48.37;99598.75;1820177;78;21093;-64
2022/05/03 08:33:30;;;;;;;1.72;1.62;;;;;;;20.51;48.30;99585.03;1820069;78;21502;-65
2022/05/03 08:35:57;;;;;;;1.90;1.80;;;;;;;20.53;48.37;99584.27;1844598;77;20997;-65
2022/05/03 08:43:54;;;;;;;1.80;1.67;;;;;;;20.58;48.35;99569.00;1848561;76;21816;-64
2022/05/03 08:46:21;;;;;;;1.90;1.80;;;;;;;20.60;48.38;99564.75;1847716;77;21053;-64
2022/05/03 08:48:53;;;;;;;2.00;1.80;;;;;;;20.61;48.42;99561.02;1847726;77;21009;-65
2022/05/03 08:51:22;;;;;;;1.90;1.80;;;;;;;20.62;48.49;99558.05;1847787;77;20998;-63
2022/05/03 08:53:50;;;;;;;1.90;1.70;;;;;;;20.64;48.37;99557.81;1847901;77;21021;-66
2022/05/03 08:56:18;;;;;;;1.75;1.65;;;;;;;20.66;48.41;99562.44;1848307;77;21132;-64
2022/05/03 08:58:46;;;;;;;2.00;1.90;;;;;;;20.67;48.38;99560.05;1847798;77;20998;-65
2022/05/03 09:01:12;;;;;;;1.70;1.60;;;;;;;20.70;48.40;99551.99;1847544;77;21447;-64
2022/05/03 09:03:39;;;;;;;2.62;1.85;;;;;;;20.71;48.37;99558.51;1847805;77;20994;-65
2022/05/03 09:06:06;;;;;;;1.72;1.60;;;;;;;20.75;48.40;99555.62;1847873;77;21013;-65
2022/05/03 09:08:34;;;;;;;2.70;1.90;;;;;;;20.77;48.36;99551.34;1847968;77;21931;-65
2022/05/03 09:11:18;;;;;;;1.70;1.60;;;;;;;20.80;48.19;99544.09;1848168;77;21001;-65
2022/05/03 09:13:46;;;;;;;1.70;1.60;;;;;;;20.83;48.21;99539.57;1848087;77;21088;-65
2022/05/03 09:16:17;;;;;;;1.60;1.50;;;;;;;20.86;48.05;99521.55;1846719;77;21079;-65
2022/05/03 09:18:45;;;;;;;1.60;1.50;;;;;;;20.88;48.05;99518.08;1847809;77;21493;-65
2022/05/03 09:24:12;;;;;;;2.60;1.77;;;;;;;20.96;47.93;99527.67;1848047;77;21072;-65
2022/05/03 09:26:40;;;;;;;1.80;1.70;;;;;;;21.00;47.95;99524.78;1847785;77;21026;-64
2022/05/03 09:29:09;;;;;;;1.62;1.52;;;;;;;21.04;47.92;99520.53;1847914;77;21070;-65
2022/05/03 09:31:47;;;;;;;1.70;1.60;;;;;;;21.07;47.92;99505.71;1847792;76;21019;-65
2022/05/03 09:34:25;;;;;;;1.87;1.60;;;;;;;21.11;47.92;99510.41;1849275;76;21169;-65
2022/05/03 09:37:05;;;;;;;1.70;1.60;;;;;;;21.15;47.91;99493.99;1857039;77;21060;-65
2022/05/03 09:39:43;;;;;;;1.80;1.70;;;;;;;21.19;47.88;99492.98;1857046;77;21084;-64
2022/05/03 09:42:14;;;;;;;1.62;1.52;;;;;;;21.22;47.90;99484.38;1857208;77;21001;-65
2022/05/03 09:45:05;;;;;;;2.00;1.50;;;;;;;21.26;47.95;99483.36;1857081;77;21172;-65
2022/05/03 09:47:33;;;;;;;1.57;1.47;;;;;;;21.29;47.96;99471.53;1856495;77;21612;-64
2022/05/03 09:49:59;;;;;;;1.80;1.70;;;;;;;21.33;47.92;99463.76;1857772;75;21505;-65
2022/05/03 09:52:29;;;;;;;1.77;1.67;;;;;;;21.37;47.98;99458.95;1857102;77;21029;-64
2022/05/03 09:55:05;;;;;;;1.95;1.85;;;;;;;21.41;47.91;99471.45;1857057;77;21006;-64
2022/05/03 09:57:35;;;;;;;1.57;1.47;;;;;;;21.46;47.99;99472.92;1857051;77;21009;-65
2022/05/03 10:00:05;;;;;;;1.72;1.62;;;;;;;21.50;47.98;99471.36;1857451;77;21080;-65
2022/05/03 10:02:34;;;;;;;1.70;1.60;;;;;;;21.57;47.95;99457.66;1856075;77;21009;-65
2022/05/03 10:05:00;;;;;;;1.27;1.20;;;;;;;21.60;48.00;99452.59;1857372;77;21001;-65
2022/05/03 10:07:27;;;;;;;1.50;1.40;;;;;;;21.66;48.01;99454.02;1855819;77;21006;-64
2022/05/03 10:09:54;;;;;;;2.08;1.90;;;;;;;21.71;48.02;99448.67;1857244;77;21574;-64
2022/05/03 10:12:20;;;;;;;1.60;1.50;;;;;;;21.76;47.82;99448.21;1857428;77;21731;-64
2022/05/03 10:14:48;;;;;;;1.70;1.60;;;;;;;21.81;47.87;99448.84;1856875;77;21075;-65
2022/05/03 10:23:02;;;;;;;1.60;1.50;;;;;;;21.94;47.82;99439.02;1857077;77;21126;-64
2022/05/03 10:25:48;;;;;;;1.77;1.67;;;;;;;21.99;47.77;99428.79;1852327;75;21236;-64
2022/05/03 10:28:15;;;;;;;1.50;1.40;;;;;;;22.05;47.77;99426.97;1856017;77;21036;-63
2022/05/03 10:31:13;;;;;;;1.90;1.80;;;;;;;22.11;47.70;99420.55;1857080;77;21064;-64
2022/05/03 10:33:41;;;;;;;1.50;1.40;;;;;;;22.15;47.83;99422.48;1856889;77;21025;-64
2022/05/03 10:36:36;;;;;;;1.52;1.42;;;;;;;22.17;47.84;99416.31;1850774;77;21175;-65
2022/05/03 10:39:05;;;;;;;1.70;1.60;;;;;;;22.21;47.83;99404.43;1847843;77;21121;-64
2022/05/03 10:41:53;;;;;;;1.52;1.42;;;;;;;22.23;47.85;99419.88;1846976;77;21483;-64
2022/05/03 10:44:56;;;;;;;1.72;1.62;;;;;;;22.24;47.84;99407.99;1808418;77;21542;-65
2022/05/03 10:47:49;;;;;;;1.55;1.45;;;;;;;22.25;47.82;99408.84;1848228;77;21451;-64
2022/05/03 10:50:20;;;;;;;1.65;1.55;;;;;;;22.27;47.79;99398.58;1748782;82;21084;-64
2022/05/03 10:53:01;;;;;;;1.60;1.50;;;;;;;22.31;47.82;99403.24;1750510;82;21208;-63
2022/05/03 10:55:32;;;;;;;1.65;1.55;;;;;;;22.36;47.75;99409.23;1782631;79;21498;-65
2022/05/03 10:58:30;;;;;;;1.65;1.55;;;;;;;22.41;47.73;99413.36;1818182;76;21532;-65
2022/05/03 11:01:20;;;;;;;1.95;1.75;;;;;;;22.44;47.73;99397.95;1840148;78;21107;-64
2022/05/03 11:03:59;;;;;;;1.50;1.40;;;;;;;22.48;47.68;99396.91;1839791;77;21041;-65
2022/05/03 11:06:32;;;;;;;1.60;1.50;;;;;;;22.52;47.78;99398.03;1839719;78;21085;-64
2022/05/03 11:11:43;;;;;;;1.40;1.30;;;;;;;22.56;47.64;99369.37;1839836;77;21490;-64
2022/05/03 11:14:22;;;;;;;1.50;1.40;;;;;;;22.57;47.68;99368.31;1839767;78;21001;-64
2022/05/03 11:17:06;;;;;;;1.72;1.62;;;;;;;22.58;47.65;99366.72;1847384;76;21045;-64
2022/05/03 11:19:38;;;;;;;1.82;1.72;;;;;;;22.62;47.55;99366.18;1847990;77;21139;-64
2022/05/03 11:22:16;;;;;;;1.75;1.60;;;;;;;22.65;47.45;99366.49;1847925;77;21525;-64
2022/05/03 11:24:47;;;;;;;1.70;1.60;;;;;;;22.68;47.40;99359.77;1847848;77;21007;-64
2022/05/03 11:27:14;;;;;;;1.92;1.70;;;;;;;22.71;47.27;99365.45;1847743;77;21016;-64
2022/05/03 11:29:45;;;;;;;1.77;1.67;;;;;;;22.74;47.32;99360.89;1847736;77;21050;-64
2022/05/03 11:32:13;;;;;;;1.80;1.70;;;;;;;22.77;47.36;99362.26;1847257;76;21127;-63
2022/05/03 11:34:40;;;;;;;1.57;1.47;;;;;;;22.80;47.34;99359.59;1839703;78;21013;-65
2022/05/03 11:37:10;;;;;;;1.72;1.62;;;;;;;22.81;47.32;99351.19;1839814;78;20978;-64
2022/05/03 11:39:37;;;;;;;1.90;1.80;;;;;;;22.82;47.38;99354.73;1839825;77;21470;-64
2022/05/03 11:42:08;;;;;;;1.70;1.60;;;;;;;22.84;47.38;99348.52;1839881;78;21013;-65
2022/05/03 11:44:34;;;;;;;1.70;1.60;;;;;;;22.83;47.39;99346.88;1839826;78;21746;-64
2022/05/03 11:47:03;;;;;;;1.77;1.67;;;;;;;22.83;47.38;99353.13;1839824;77;21045;-65
2022/05/03 11:49:31;;;;;;;1.82;1.72;;;;;;;22.84;47.36;99346.63;1841265;76;21079;-65
2022/05/03 11:57:44;;;;;;;1.80;1.70;;;;;;;22.87;47.30;99347.47;1847741;77;21125;-64
2022/05/03 12:00:13;;;;;;;1.90;1.80;;;;;;;22.88;47.17;99345.03;1846782;77;21064;-64
2022/05/03 12:02:44;;;;;;;1.72;1.62;;;;;;;22.88;47.17;99332.03;1848163;77;21049;-64
2022/05/03 12:05:20;;;;;;;1.80;1.70;;;;;;;22.89;47.21;99326.36;1847901;77;21311;-64
2022/05/03 12:07:57;;;;;;;1.70;1.60;;;;;;;22.90;47.16;99328.53;1842219;76;21033;-64
2022/05/03 12:10:40;;;;;;;1.80;1.70;;;;;;;22.89;47.17;99322.30;1839831;77;21094;-64
2022/05/03 12:13:16;;;;;;;2.10;1.90;;;;;;;22.89;47.27;99315.53;1839697;77;20966;-65
2022/05/03 12:15:52;;;;;;;1.85;1.75;;;;;;;22.89;47.23;99335.00;1839635;78;21566;-64
2022/05/03 12:18:35;;;;;;;1.65;1.55;;;;;;;22.87;47.23;99333.94;1840122;78;21035;-65
2022/05/03 12:21:05;;;;;;;;;;;;;;;22.88;47.21;99335.55;1842648;77;20986;-64
2022/05/03 12:23:38;;;;;;;1.70;1.60;;;;;;;22.88;47.20;99336.09;1841054;76;21209;-65
2022/05/03 12:26:24;;;;;;;1.70;1.60;;;;;;;22.87;47.27;99331.22;1847411;77;21058;-65
2022/05/03 12:28:59;;;;;;;1.75;1.65;;;;;;;22.86;47.29;99328.77;1847713;77;20987;-64
2022/05/03 12:31:35;;;;;;;1.90;1.80;;;;;;;22.85;47.33;99331.19;1847770;76;21046;-64
2022/05/03 12:34:00;;;;;;;1.70;1.60;;;;;;;22.84;47.28;99336.34;1847700;77;21528;-64
2022/05/03 12:36:43;;;;;;;1.80;1.70;;;;;;;22.82;47.32;99343.36;1847699;77;21133;-64